Terminal Aerodrome Forecast
Issued by NWS Atlanta, GA

Home | Current Version | Previous Version | Text Only | Print | Product List | Glossary On
Versions: 1 2 3 4 5 6 7 8 9 10 11 12 13 14 15 16
666
FTUS42 KFFC 301137
TAFMCN
TAF
KMCN 301137Z 3012/3112 26004KT P6SM SCT250
     FM301400 28005KT P6SM FEW030
     FM301600 26007KT P6SM SCT050
      TEMPO 3020/3024 5SM -TSRA BKN035CB
     FM310000 24004KT P6SM SCT070 SCT250=

USA.gov is the U.S. government's official web portal to all federal, state and local government web resources and services.